Time;durP1;ratioP1;P1;durP2;ratioP2;P2;SDS_P1;SDS_P2;PMS_P1;PMS_P2;Temp;Humidity;BMP_temperature;BMP_pressure;BME280_temperature;BME280_humidity;BME280_pressure;Samples;Min_cycle;Max_cycle;Signal;HPM_P1;HPM_P2
2022/09/12 00:02:05;;;;;;;20.50;15.70;;;17.90;99.90;;;;;;5019506;28;20488;-82
2022/09/12 00:05:10;;;;;;;24.77;15.13;;;17.80;99.90;;;;;;5013244;28;20449;-85
2022/09/12 00:08:09;;;;;;;18.30;14.63;;;17.80;99.90;;;;;;4993369;28;20510;-83
2022/09/12 00:10:49;;;;;;;21.77;15.07;;;17.80;99.90;;;;;;4994568;28;20476;-83
2022/09/12 00:13:28;;;;;;;23.87;17.17;;;18.00;99.90;;;;;;4995023;28;20450;-84
2022/09/12 00:16:02;;;;;;;22.00;15.77;;;18.20;99.90;;;;;;4993801;28;21005;-83
2022/09/12 00:18:39;;;;;;;19.77;13.80;;;18.00;99.90;;;;;;4994706;28;20461;-81
2022/09/12 00:21:16;;;;;;;22.43;15.60;;;17.90;99.90;;;;;;4994386;28;20529;-83
2022/09/12 00:23:49;;;;;;;21.27;14.60;;;17.80;99.90;;;;;;5011610;28;20451;-83
2022/09/12 00:26:34;;;;;;;17.87;14.37;;;17.90;99.90;;;;;;4989515;28;20481;-83
2022/09/12 00:29:04;;;;;;;23.43;15.60;;;17.90;99.90;;;;;;5011665;28;20464;-82
2022/09/12 00:31:37;;;;;;;22.30;15.47;;;18.10;99.90;;;;;;5012273;28;20520;-82
2022/09/12 00:34:25;;;;;;;;;;;;;;;;;;;;;
2022/09/12 00:36:58;;;;;;;23.47;13.80;;;17.80;99.90;;;;;;5007733;28;20465;-82
2022/09/12 00:39:45;;;;;;;21.00;15.00;;;17.90;99.90;;;;;;4983067;28;20567;-81
2022/09/12 00:42:30;;;;;;;21.80;14.30;;;18.20;99.90;;;;;;4994264;28;20501;-83
2022/09/12 00:45:18;;;;;;;20.80;14.20;;;18.10;99.90;;;;;;4996419;28;20474;-82
2022/09/12 00:48:07;;;;;;;18.73;13.53;;;17.90;99.90;;;;;;4995886;28;20586;-82
2022/09/12 00:50:45;;;;;;;21.20;13.73;;;17.70;99.90;;;;;;4977765;28;20492;-83
2022/09/12 00:53:58;;;;;;;21.00;15.27;;;17.90;99.90;;;;;;5009629;28;20919;-81
2022/09/12 00:57:08;;;;;;;18.07;14.10;;;17.80;99.90;;;;;;5001764;28;20655;-83
2022/09/12 01:00:03;;;;;;;17.80;13.10;;;17.70;99.90;;;;;;4992924;28;21007;-82
2022/09/12 01:02:39;;;;;;;23.23;14.47;;;17.60;99.90;;;;;;4983294;28;20532;-82
2022/09/12 01:08:37;;;;;;;22.70;15.03;;;17.40;99.90;;;;;;5011020;28;20974;-83
2022/09/12 01:11:11;;;;;;;20.10;14.20;;;17.40;99.90;;;;;;4996337;28;20461;-83
2022/09/12 01:14:01;;;;;;;19.63;14.20;;;17.40;99.90;;;;;;5008092;28;20954;-83
2022/09/12 01:16:59;;;;;;;21.40;15.90;;;17.30;99.90;;;;;;4998491;28;20458;-82
2022/09/12 01:27:28;;;;;;;22.43;14.67;;;17.30;99.90;;;;;;4981426;28;20504;-84
2022/09/12 01:30:51;;;;;;;;;;;;;;;;;;;;;
2022/09/12 01:34:06;;;;;;;21.90;13.87;;;17.10;99.90;;;;;;5028869;28;20458;-83
2022/09/12 01:37:30;;;;;;;19.43;13.10;;;17.10;99.90;;;;;;5009413;28;20452;-83
2022/09/12 01:40:37;;;;;;;;;;;;;;;;;;;;;
2022/09/12 01:43:34;;;;;;;20.60;14.00;;;17.10;99.90;;;;;;4938869;28;20485;-81
2022/09/12 01:46:45;;;;;;;21.40;14.83;;;17.00;99.90;;;;;;4912326;29;20485;-84
2022/09/12 01:49:51;;;;;;;19.80;14.60;;;17.00;99.90;;;;;;4917417;29;20549;-84
2022/09/12 01:52:39;;;;;;;19.60;14.10;;;17.10;99.90;;;;;;4936700;28;20605;-82
2022/09/12 01:55:32;;;;;;;24.30;15.10;;;17.00;99.90;;;;;;4910525;28;20470;-84
2022/09/12 01:58:27;;;;;;;21.10;13.30;;;17.00;99.90;;;;;;4920207;29;20469;-82
2022/09/12 02:01:18;;;;;;;19.80;14.40;;;17.10;99.90;;;;;;4933335;29;20567;-83
2022/09/12 02:04:25;;;;;;;20.90;13.77;;;17.10;99.90;;;;;;4921929;29;20524;-82
2022/09/12 02:07:17;;;;;;;18.03;13.33;;;17.10;99.90;;;;;;4937920;28;20536;-82
2022/09/12 02:10:32;;;;;;;21.23;14.47;;;17.00;99.90;;;;;;4993035;28;20501;-82
2022/09/12 02:13:42;;;;;;;17.90;12.97;;;17.00;99.90;;;;;;4991798;28;20477;-82
2022/09/12 02:16:35;;;;;;;17.83;13.50;;;16.90;99.90;;;;;;4996668;28;21561;-83
2022/09/12 02:19:29;;;;;;;20.63;14.23;;;17.00;99.90;;;;;;4993980;28;20509;-83
2022/09/12 02:22:12;;;;;;;22.67;14.80;;;17.10;99.90;;;;;;4991738;28;21168;-83
2022/09/12 02:24:54;;;;;;;19.63;14.40;;;17.10;99.90;;;;;;4992740;28;20477;-83
2022/09/12 02:28:22;;;;;;;21.57;14.40;;;17.10;99.90;;;;;;4981265;28;20501;-83
2022/09/12 02:31:43;;;;;;;21.53;14.20;;;17.00;99.90;;;;;;4941165;28;20477;-84
2022/09/12 02:34:48;;;;;;;23.00;15.13;;;17.00;99.90;;;;;;4965702;28;20469;-83
2022/09/12 02:41:45;;;;;;;17.93;13.27;;;17.00;99.90;;;;;;4951105;28;20581;-83
2022/09/12 02:44:36;;;;;;;15.83;12.70;;;17.00;99.90;;;;;;4969248;28;20540;-83
2022/09/12 02:48:06;;;;;;;21.70;14.60;;;16.90;99.90;;;;;;4990749;28;20621;-81
2022/09/12 02:51:06;;;;;;;20.07;13.43;;;16.70;99.90;;;;;;4955255;28;20990;-83
2022/09/12 02:54:05;;;;;;;;;;;;;;;;;;;;;
2022/09/12 02:57:23;;;;;;;14.00;11.43;;;16.80;99.90;;;;;;5012160;28;20450;-84
2022/09/12 03:00:14;;;;;;;16.43;13.23;;;16.60;99.90;;;;;;4987742;28;20509;-82
2022/09/12 03:03:25;;;;;;;16.13;12.50;;;16.60;99.90;;;;;;5000469;28;20681;-82
2022/09/12 03:06:37;;;;;;;16.43;13.10;;;16.60;99.90;;;;;;5004215;28;20437;-83
2022/09/12 03:09:41;;;;;;;18.17;13.00;;;16.70;99.90;;;;;;5007339;28;20484;-84
2022/09/12 03:13:07;;;;;;;13.77;11.53;;;16.70;99.90;;;;;;5000923;28;20452;-83
2022/09/12 03:16:06;;;;;;;16.70;13.07;;;16.50;99.90;;;;;;4918633;29;20445;-84
2022/09/12 03:18:56;;;;;;;16.50;12.57;;;16.50;99.90;;;;;;4906124;29;20460;-80
2022/09/12 03:22:25;;;;;;;;;;;;;;;;;;;;;
2022/09/12 03:25:57;;;;;;;18.83;11.50;;;16.60;99.90;;;;;;4917960;29;20467;-84
2022/09/12 03:29:13;;;;;;;16.90;12.17;;;16.40;99.90;;;;;;4885437;29;20495;-82
2022/09/12 03:32:00;;;;;;;21.37;11.67;;;16.50;99.90;;;;;;4906480;29;20461;-84
2022/09/12 03:34:29;;;;;;;14.07;10.70;;;16.30;99.90;;;;;;4915404;29;20594;-81
2022/09/12 03:37:19;;;;;;;13.40;11.00;;;16.20;99.90;;;;;;4916059;29;20480;-83
2022/09/12 03:39:49;;;;;;;13.70;10.83;;;16.10;99.90;;;;;;4925147;28;20474;-82
2022/09/12 03:42:46;;;;;;;19.33;11.60;;;16.10;99.90;;;;;;5009592;28;20504;-82
2022/09/12 03:46:09;;;;;;;12.97;10.67;;;16.10;99.90;;;;;;4998294;28;20921;-85
2022/09/12 03:48:36;;;;;;;12.70;11.00;;;16.10;99.90;;;;;;4995924;28;20495;-80
2022/09/12 03:51:19;;;;;;;14.77;10.87;;;16.10;99.90;;;;;;5019400;28;20516;-82
2022/09/12 03:54:08;;;;;;;15.00;11.50;;;16.30;99.90;;;;;;4999492;28;20449;-81
2022/09/12 03:56:40;;;;;;;13.67;11.00;;;16.30;99.90;;;;;;5002706;28;20463;-82
2022/09/12 03:59:36;;;;;;;16.73;12.20;;;16.10;99.90;;;;;;4998845;28;20482;-82
2022/09/12 04:02:12;;;;;;;15.63;12.37;;;16.40;99.90;;;;;;4989367;28;20464;-82
2022/09/12 04:04:46;;;;;;;19.20;12.60;;;16.50;99.90;;;;;;5013152;28;20552;-84
2022/09/12 04:07:30;;;;;;;15.27;12.30;;;16.20;99.90;;;;;;5010515;28;20498;-82
2022/09/12 04:10:00;;;;;;;17.47;13.17;;;16.20;99.90;;;;;;5016664;28;20466;-81
2022/09/12 04:12:38;;;;;;;20.00;14.77;;;16.30;99.90;;;;;;5005356;28;20477;-81
2022/09/12 04:15:21;;;;;;;20.90;14.50;;;16.30;99.90;;;;;;5003288;28;20512;-81
2022/09/12 04:18:11;;;;;;;18.10;14.77;;;16.20;99.90;;;;;;5006392;28;20536;-82
2022/09/12 04:20:52;;;;;;;15.80;13.17;;;16.00;99.90;;;;;;5006610;28;20486;-83
2022/09/12 04:23:33;;;;;;;16.30;11.87;;;16.10;99.90;;;;;;5005799;28;20649;-81
2022/09/12 04:26:42;;;;;;;17.63;13.90;;;16.10;99.90;;;;;;5019982;28;20476;-80
2022/09/12 04:29:41;;;;;;;16.60;12.70;;;16.10;99.90;;;;;;5015136;28;20735;-81
2022/09/12 04:32:39;;;;;;;15.17;11.60;;;15.90;99.90;;;;;;4933553;28;20472;-83
2022/09/12 04:35:14;;;;;;;16.40;12.27;;;15.90;99.90;;;;;;4937055;28;20573;-83
2022/09/12 04:38:08;;;;;;;15.40;12.50;;;15.90;99.90;;;;;;4927402;28;20464;-83
2022/09/12 04:41:31;;;;;;;14.03;10.93;;;15.80;99.90;;;;;;4946120;28;21003;-85
2022/09/12 04:44:36;;;;;;;13.70;11.57;;;15.90;99.90;;;;;;4945122;28;20575;-81
2022/09/12 04:47:30;;;;;;;14.83;11.30;;;16.00;99.90;;;;;;4950085;28;20536;-81
2022/09/12 04:50:23;;;;;;;13.50;11.37;;;15.90;99.90;;;;;;4937952;28;20461;-82
2022/09/12 04:53:24;;;;;;;13.00;10.50;;;15.70;99.90;;;;;;4989878;28;20553;-82
2022/09/12 04:56:17;;;;;;;12.50;10.00;;;15.70;99.90;;;;;;5007115;28;20559;-83
2022/09/12 04:59:18;;;;;;;12.60;9.87;;;15.70;99.90;;;;;;4903702;29;20520;-81
2022/09/12 05:09:29;;;;;;;14.83;11.20;;;15.80;99.90;;;;;;4912631;28;20914;-82
2022/09/12 05:11:56;;;;;;;15.60;10.13;;;16.00;99.90;;;;;;4900572;29;20453;-84
2022/09/12 05:14:49;;;;;;;;;;;;;;;;;;;;;
2022/09/12 05:18:21;;;;;;;;;;;;;;;;;;;;;
2022/09/12 05:21:21;;;;;;;13.33;10.00;;;15.70;99.90;;;;;;4915490;29;20461;-83
2022/09/12 05:25:01;;;;;;;13.90;11.63;;;15.70;99.90;;;;;;4911937;29;20450;-82
2022/09/12 05:34:40;;;;;;;10.80;8.93;;;15.80;99.90;;;;;;4990672;28;20520;-82
2022/09/12 05:37:27;;;;;;;16.50;10.10;;;15.90;99.90;;;;;;4996675;28;20453;-81
2022/09/12 05:40:26;;;;;;;12.40;9.67;;;15.90;99.90;;;;;;4973880;28;20839;-81
2022/09/12 05:43:19;;;;;;;10.57;9.47;;;15.90;99.90;;;;;;4984533;28;20465;-84
2022/09/12 05:46:13;;;;;;;12.77;9.50;;;16.00;99.90;;;;;;4959075;28;20454;-82
2022/09/12 05:49:20;;;;;;;14.07;10.20;;;16.10;99.90;;;;;;4982087;28;20494;-83
2022/09/12 05:51:58;;;;;;;11.73;10.13;;;16.00;99.90;;;;;;4967966;28;20533;-84
2022/09/12 05:55:00;;;;;;;15.63;10.30;;;16.00;99.90;;;;;;4978700;28;20451;-84
2022/09/12 05:57:30;;;;;;;12.77;10.40;;;16.20;99.90;;;;;;4970697;28;20452;-84
2022/09/12 06:00:00;;;;;;;10.87;9.73;;;16.30;99.90;;;;;;4978926;28;20489;-84
2022/09/12 06:03:04;;;;;;;12.30;9.23;;;16.30;99.90;;;;;;4983929;28;20478;-84
2022/09/12 06:05:43;;;;;;;14.70;10.10;;;16.40;99.90;;;;;;4985883;28;20468;-84
2022/09/12 06:08:19;;;;;;;11.20;9.50;;;16.30;99.90;;;;;;4976729;28;20476;-84
2022/09/12 06:10:50;;;;;;;14.17;11.13;;;16.40;99.90;;;;;;4995953;28;20516;-83
2022/09/12 06:13:45;;;;;;;;;;;;;;;;;;;;;
2022/09/12 06:17:05;;;;;;;11.23;9.10;;;18.80;99.90;;;;;;4994977;28;20473;-80
2022/09/12 06:22:58;;;;;;;11.10;9.27;;;19.40;97.30;;;;;;4985261;28;20457;-82
2022/09/12 06:25:50;;;;;;;12.30;9.70;;;18.90;98.60;;;;;;4982356;28;20459;-82
2022/09/12 06:28:50;;;;;;;12.00;8.70;;;19.50;99.10;;;;;;4972142;28;20478;-83
2022/09/12 06:31:34;;;;;;;11.07;7.80;;;21.10;96.10;;;;;;5002204;28;20451;-83
2022/09/12 06:34:25;;;;;;;8.77;7.87;;;21.30;94.40;;;;;;4994719;28;20454;-84
2022/09/12 06:37:02;;;;;;;12.27;8.83;;;21.40;94.00;;;;;;4975114;28;20451;-82
2022/09/12 06:39:59;;;;;;;9.00;7.37;;;21.50;93.50;;;;;;4988166;28;20466;-84
2022/09/12 06:42:43;;;;;;;10.97;8.97;;;21.50;93.80;;;;;;4980550;28;20949;-82
2022/09/12 06:45:33;;;;;;;9.80;8.80;;;22.00;93.00;;;;;;4980788;28;20501;-82
2022/09/12 06:48:17;;;;;;;11.93;8.07;;;22.80;91.60;;;;;;4980946;28;20482;-84
2022/09/12 06:51:17;;;;;;;11.43;8.60;;;22.80;90.60;;;;;;4966200;28;20518;-83
2022/09/12 06:54:21;;;;;;;12.57;9.27;;;21.60;91.60;;;;;;4969470;28;20462;-81
2022/09/12 06:56:53;;;;;;;9.83;7.57;;;21.10;93.60;;;;;;5001380;28;20474;-82
2022/09/12 07:00:07;;;;;;;9.60;8.60;;;21.00;93.90;;;;;;4993951;28;20481;-82
2022/09/12 07:03:12;;;;;;;9.30;8.37;;;20.90;94.10;;;;;;4990442;28;20458;-84
2022/09/12 07:06:14;;;;;;;13.53;8.50;;;20.30;94.60;;;;;;4975581;28;20537;-84
2022/09/12 07:08:51;;;;;;;9.50;8.10;;;19.90;96.10;;;;;;4993675;28;21012;-81
2022/09/12 07:11:32;;;;;;;10.50;8.10;;;19.80;96.70;;;;;;4976834;28;20451;-84
2022/09/12 07:14:13;;;;;;;9.80;7.93;;;20.30;96.70;;;;;;4994711;28;20710;-83
2022/09/12 07:17:03;;;;;;;10.10;8.20;;;21.30;94.80;;;;;;4984803;28;20458;-83
2022/09/12 07:19:39;;;;;;;10.40;8.53;;;22.00;93.20;;;;;;4988474;28;20491;-83
2022/09/12 07:22:25;;;;;;;13.57;9.40;;;21.80;92.50;;;;;;5005813;28;20466;-81
2022/09/12 07:25:42;;;;;;;13.93;9.27;;;21.40;92.80;;;;;;5000601;28;20466;-81
2022/09/12 07:28:37;;;;;;;11.27;8.90;;;20.80;93.70;;;;;;4999268;28;20481;-82
2022/09/12 07:34:46;;;;;;;9.57;8.10;;;20.50;95.80;;;;;;4991909;28;20915;-85
2022/09/12 07:37:19;;;;;;;11.57;10.20;;;20.40;95.60;;;;;;4987689;28;20462;-83
2022/09/12 07:39:56;;;;;;;9.77;8.53;;;21.00;94.70;;;;;;4976327;28;20478;-84
2022/09/12 07:42:59;;;;;;;11.20;9.50;;;21.70;94.10;;;;;;4977731;28;20458;-85
2022/09/12 07:45:50;;;;;;;10.63;8.53;;;22.50;92.40;;;;;;4992916;28;20901;-83
2022/09/12 07:48:29;;;;;;;10.10;8.10;;;22.40;92.10;;;;;;4976993;28;20492;-84
2022/09/12 07:51:30;;;;;;;9.73;8.73;;;22.70;91.40;;;;;;4978487;28;20465;-82
2022/09/12 07:54:17;;;;;;;13.67;8.60;;;22.60;91.20;;;;;;4976615;28;20541;-81
2022/09/12 07:57:01;;;;;;;11.43;10.17;;;22.10;91.90;;;;;;4978716;28;20443;-82
2022/09/12 08:00:16;;;;;;;10.93;8.90;;;21.70;93.00;;;;;;4975080;28;20491;-84
2022/09/12 08:03:03;;;;;;;11.47;9.13;;;21.90;92.80;;;;;;4954178;28;20984;-82
2022/09/12 08:05:36;;;;;;;12.43;9.40;;;22.20;92.00;;;;;;4968555;28;21027;-82
2022/09/12 08:08:29;;;;;;;13.17;9.30;;;22.20;92.30;;;;;;4971301;28;20513;-83
2022/09/12 08:11:18;;;;;;;14.17;8.20;;;22.50;91.50;;;;;;4971876;28;20466;-84
2022/09/12 08:14:04;;;;;;;10.03;8.17;;;23.20;90.80;;;;;;4987513;28;20477;-85
2022/09/12 08:16:43;;;;;;;10.00;9.00;;;22.90;90.40;;;;;;4985064;28;20494;-84
2022/09/12 08:19:46;;;;;;;10.63;8.70;;;22.60;91.20;;;;;;4986229;28;20474;-84
2022/09/12 08:22:17;;;;;;;11.17;8.90;;;22.20;92.30;;;;;;4978738;28;20453;-83
2022/09/12 08:25:01;;;;;;;14.40;9.90;;;21.90;92.60;;;;;;4978205;28;20978;-84
2022/09/12 08:27:49;;;;;;;12.87;8.43;;;21.50;92.80;;;;;;4981807;28;21058;-83
2022/09/12 08:30:33;;;;;;;12.87;9.47;;;20.90;93.90;;;;;;4999389;28;20564;-82
2022/09/12 08:33:00;;;;;;;9.73;8.70;;;20.60;95.10;;;;;;4996037;28;20506;-83
2022/09/12 08:35:29;;;;;;;11.97;8.80;;;20.40;95.50;;;;;;4989646;28;20617;-83
2022/09/12 08:38:05;;;;;;;10.60;8.70;;;20.60;95.70;;;;;;4997535;28;20459;-80
2022/09/12 08:41:16;;;;;;;10.17;8.40;;;20.60;95.70;;;;;;4979418;28;21039;-83
2022/09/12 08:44:08;;;;;;;19.80;8.80;;;20.70;95.80;;;;;;4999165;28;20449;-83
2022/09/12 08:47:43;;;;;;;10.07;7.97;;;20.70;96.00;;;;;;4990714;28;20451;-83
2022/09/12 08:50:26;;;;;;;11.90;8.50;;;20.80;95.60;;;;;;5004452;28;20484;-84
2022/09/12 08:53:04;;;;;;;11.53;8.37;;;21.10;95.10;;;;;;4988490;28;20477;-81
2022/09/12 08:55:37;;;;;;;11.00;8.83;;;20.90;95.30;;;;;;4993176;28;20456;-83
2022/09/12 08:58:31;;;;;;;10.53;8.60;;;20.90;95.50;;;;;;4977199;28;20459;-82
2022/09/12 09:01:39;;;;;;;10.87;8.53;;;21.00;95.60;;;;;;4992697;28;20484;-82
2022/09/12 09:05:10;;;;;;;12.60;8.20;;;20.90;95.50;;;;;;4981196;28;20447;-83
2022/09/12 09:08:34;;;;;;;10.63;8.90;;;21.00;96.00;;;;;;4994795;28;20422;-83
2022/09/12 09:11:41;;;;;;;8.87;7.90;;;21.00;95.80;;;;;;4976042;28;20471;-84
2022/09/12 09:14:47;;;;;;;12.80;8.67;;;20.90;96.20;;;;;;4990961;28;20499;-85
2022/09/12 09:17:49;;;;;;;9.07;8.10;;;20.90;96.00;;;;;;4972448;28;20455;-83
2022/09/12 09:23:59;;;;;;;;;;;;;;;;;;;;;
2022/09/12 09:26:46;;;;;;;11.73;10.53;;;21.40;95.60;;;;;;4991641;28;20477;-85
2022/09/12 09:29:44;;;;;;;10.50;6.73;;;21.70;95.20;;;;;;4945781;28;20487;-83
2022/09/12 09:32:53;;;;;;;9.20;7.40;;;22.00;93.90;;;;;;4945342;28;20496;-85
2022/09/12 09:36:03;;;;;;;8.33;7.20;;;22.20;93.90;;;;;;4917783;29;20565;-83
2022/09/12 09:39:41;;;;;;;;;;;;;;;;;;;;;
2022/09/12 09:42:56;;;;;;;7.70;6.90;;;22.20;93.90;;;;;;4888511;29;20484;-82
2022/09/12 09:50:02;;;;;;;6.90;6.13;;;27.00;79.20;;;;;;4840275;29;20479;-84
2022/09/12 09:53:38;;;;;;;;;;;;;;;;;;;;;
2022/09/12 09:57:11;;;;;;;5.70;5.20;;;28.60;68.30;;;;;;4857302;29;20437;-85
2022/09/12 09:59:46;;;;;;;6.10;5.60;;;29.20;63.40;;;;;;4855177;29;20491;-83
2022/09/12 10:02:32;;;;;;;6.67;5.97;;;29.50;61.40;;;;;;4865717;29;20467;-83
2022/09/12 10:05:43;;;;;;;5.70;5.20;;;29.20;61.90;;;;;;4867055;29;20566;-86
2022/09/12 10:09:18;;;;;;;6.17;5.43;;;29.10;61.30;;;;;;4914137;29;20588;-85
2022/09/12 10:12:32;;;;;;;6.27;5.77;;;29.20;61.20;;;;;;4931675;29;20461;-81
2022/09/12 10:16:00;;;;;;;5.80;5.30;;;29.50;61.10;;;;;;4911553;29;20539;-85
2022/09/12 10:22:51;;;;;;;5.60;4.83;;;29.90;58.00;;;;;;4994361;28;20505;-83
2022/09/12 10:26:05;;;;;;;5.90;5.40;;;28.90;59.40;;;;;;4977928;28;20449;-83
2022/09/12 10:29:29;;;;;;;5.70;5.20;;;29.40;59.00;;;;;;4936026;28;20485;-83
2022/09/12 10:32:45;;;;;;;5.77;5.20;;;28.70;59.20;;;;;;4981707;28;20503;-83
2022/09/12 10:36:16;;;;;;;5.60;5.03;;;29.10;59.00;;;;;;4976707;28;20451;-85
2022/09/12 10:39:52;;;;;;;4.97;4.57;;;29.00;57.70;;;;;;4933032;22;20493;-84
2022/09/12 10:42:54;;;;;;;5.50;4.93;;;29.00;57.20;;;;;;5007992;28;20461;-82
2022/09/12 10:45:40;;;;;;;5.57;5.00;;;29.00;57.90;;;;;;5010666;28;21096;-83
2022/09/12 10:48:35;;;;;;;4.93;4.23;;;29.50;56.90;;;;;;5021189;28;20539;-84
2022/09/12 10:51:32;;;;;;;4.40;4.00;;;29.60;55.50;;;;;;5008347;28;21240;-86
2022/09/12 10:54:52;;;;;;;4.07;3.77;;;28.30;57.20;;;;;;4989580;28;20457;-84
2022/09/12 10:58:20;;;;;;;3.40;3.10;;;29.40;54.80;;;;;;5000719;28;20493;-83
2022/09/12 11:01:35;;;;;;;3.10;2.90;;;29.10;54.70;;;;;;4929597;29;20490;-83
2022/09/12 11:04:45;;;;;;;;;;;;;;;;;;;;;
2022/09/12 11:08:12;;;;;;;2.87;2.60;;;29.20;53.70;;;;;;4939438;28;21000;-84
2022/09/12 11:11:34;;;;;;;3.70;3.40;;;29.20;53.30;;;;;;4940210;28;20516;-83
2022/09/12 11:14:38;;;;;;;3.87;3.57;;;29.30;53.20;;;;;;4939795;28;20496;-84
2022/09/12 11:21:19;;;;;;;3.17;2.97;;;28.50;54.70;;;;;;4938340;28;20594;-83
2022/09/12 11:24:41;;;;;;;2.80;2.60;;;29.30;52.10;;;;;;4942704;28;20496;-81
2022/09/12 11:27:43;;;;;;;2.47;2.37;;;29.30;51.90;;;;;;4940312;28;20577;-83
2022/09/12 11:30:47;;;;;;;2.93;2.73;;;28.90;51.80;;;;;;4941491;28;21572;-83
2022/09/12 11:34:16;;;;;;;3.27;3.07;;;29.80;49.80;;;;;;5010263;28;20510;-81
2022/09/12 11:37:04;;;;;;;2.60;2.40;;;29.80;49.30;;;;;;4961315;28;20487;-84
2022/09/12 11:40:57;;;;;;;;;;;;;;;;;;;;;
2022/09/12 11:44:29;;;;;;;2.40;2.20;;;29.80;48.30;;;;;;4988569;28;22458;-84
2022/09/12 11:47:23;;;;;;;;;;;;;;;;;;;;;
2022/09/12 11:50:29;;;;;;;2.43;2.33;;;29.70;49.40;;;;;;5010094;28;20501;-84
2022/09/12 11:56:18;;;;;;;2.43;2.20;;;29.90;47.60;;;;;;5002003;28;20455;-84
2022/09/12 11:59:20;;;;;;;2.00;1.90;;;29.70;47.50;;;;;;4984101;28;20516;-84
2022/09/12 12:02:13;;;;;;;2.17;1.90;;;29.50;48.00;;;;;;4996290;28;20439;-85
2022/09/12 12:05:13;;;;;;;2.03;1.83;;;29.80;47.50;;;;;;5001125;28;20454;-85
2022/09/12 12:10:59;;;;;;;2.33;2.20;;;29.20;47.10;;;;;;4997399;28;20543;-83
2022/09/12 12:14:28;;;;;;;2.60;2.40;;;28.80;48.20;;;;;;4998413;28;20453;-83
2022/09/12 12:17:01;;;;;;;2.50;2.30;;;29.50;47.80;;;;;;4999081;28;20446;-85
2022/09/12 12:20:09;;;;;;;2.23;2.13;;;29.00;48.60;;;;;;5002215;28;21771;-82
2022/09/12 12:23:02;;;;;;;2.13;2.03;;;29.30;47.80;;;;;;4990582;28;20492;-82
2022/09/12 12:26:04;;;;;;;2.40;2.30;;;29.40;47.50;;;;;;5015922;28;20474;-82
2022/09/12 12:28:49;;;;;;;1.80;1.70;;;29.90;46.80;;;;;;5004494;28;20471;-83
2022/09/12 12:31:22;;;;;;;2.43;2.33;;;29.20;47.00;;;;;;5019954;28;20453;-84
2022/09/12 12:34:43;;;;;;;2.80;2.57;;;29.30;48.00;;;;;;5017696;28;20448;-82
2022/09/12 12:37:52;;;;;;;2.90;2.70;;;29.80;46.60;;;;;;5002660;28;20474;-83
2022/09/12 12:40:44;;;;;;;2.83;2.37;;;29.00;47.90;;;;;;4964176;28;20546;-85
2022/09/12 12:43:38;;;;;;;2.60;2.40;;;29.80;47.30;;;;;;4987104;28;20998;-84
2022/09/12 12:47:11;;;;;;;2.70;2.50;;;30.10;46.90;;;;;;4999921;28;20462;-83
2022/09/12 12:50:25;;;;;;;2.40;2.30;;;30.00;46.80;;;;;;4994345;28;20490;-83
2022/09/12 12:53:15;;;;;;;2.00;1.90;;;29.90;47.00;;;;;;4998581;28;20957;-83
2022/09/12 12:55:42;;;;;;;2.00;1.90;;;30.00;45.70;;;;;;4984505;28;20473;-83
2022/09/12 12:59:08;;;;;;;2.60;2.40;;;29.50;46.30;;;;;;5002641;28;21042;-84
2022/09/12 13:02:04;;;;;;;2.60;2.40;;;29.80;46.00;;;;;;4993970;28;20469;-82
2022/09/12 13:04:46;;;;;;;3.30;3.10;;;29.90;46.20;;;;;;5000502;28;20481;-85
2022/09/12 13:07:35;;;;;;;2.60;2.07;;;30.20;46.40;;;;;;4972558;28;20465;-84
2022/09/12 13:10:40;;;;;;;;;;;;;;;;;;;;;
2022/09/12 13:13:27;;;;;;;3.10;2.70;;;29.60;47.50;;;;;;5004038;28;20498;-82
2022/09/12 13:15:57;;;;;;;2.90;2.70;;;29.80;47.20;;;;;;4990306;28;20454;-83
2022/09/12 13:18:47;;;;;;;3.20;2.90;;;30.10;46.70;;;;;;4989634;28;20454;-83
2022/09/12 13:21:16;;;;;;;3.27;3.03;;;30.20;47.00;;;;;;5003225;28;20458;-84
2022/09/12 13:24:01;;;;;;;2.60;2.50;;;30.00;46.70;;;;;;5000331;28;20515;-83
2022/09/12 13:26:40;;;;;;;2.87;2.67;;;30.00;47.00;;;;;;5001574;28;20450;-83
2022/09/12 13:29:39;;;;;;;2.60;2.40;;;30.20;46.80;;;;;;5001130;28;21005;-82
2022/09/12 13:32:40;;;;;;;3.10;2.90;;;29.80;47.10;;;;;;5002159;28;21155;-82
2022/09/12 13:35:42;;;;;;;2.67;2.47;;;29.50;47.70;;;;;;5018598;28;20462;-83
2022/09/12 13:38:25;;;;;;;2.80;2.20;;;29.70;47.50;;;;;;4986834;28;20442;-82
2022/09/12 13:41:34;;;;;;;3.50;2.90;;;29.20;47.60;;;;;;5002149;28;20568;-84
2022/09/12 13:44:55;;;;;;;3.07;2.30;;;29.60;47.10;;;;;;4997624;28;20491;-84
2022/09/12 13:47:53;;;;;;;2.97;2.60;;;30.10;46.80;;;;;;5000590;28;20466;-85
2022/09/12 13:51:17;;;;;;;2.90;2.70;;;30.00;47.10;;;;;;4988116;28;20490;-83
2022/09/12 13:54:10;;;;;;;2.70;2.50;;;29.70;47.70;;;;;;5000097;28;20435;-82
2022/09/12 13:57:20;;;;;;;3.13;2.93;;;29.90;47.70;;;;;;4979759;28;20550;-83
2022/09/12 14:00:10;;;;;;;3.73;3.43;;;29.50;48.10;;;;;;5002986;28;20556;-81
2022/09/12 14:05:06;;;;;;;3.00;2.80;;;29.80;47.50;;;;;;5002219;28;20484;-83
2022/09/12 14:06:05;;;;;;;2.87;2.67;;;29.80;47.50;;;;;;5017384;28;20458;-83
2022/09/12 14:08:41;;;;;;;3.33;3.10;;;29.70;47.80;;;;;;4999563;28;21288;-82
2022/09/12 14:11:29;;;;;;;3.00;2.80;;;29.60;47.70;;;;;;5015373;28;20486;-83
2022/09/12 14:14:05;;;;;;;3.20;2.70;;;29.40;48.10;;;;;;4990459;28;20470;-84
2022/09/12 14:16:39;;;;;;;2.90;2.70;;;29.00;49.00;;;;;;4992521;28;20480;-85
2022/09/12 14:19:20;;;;;;;3.20;2.97;;;29.20;48.70;;;;;;4999140;28;20525;-83
2022/09/12 14:22:18;;;;;;;3.20;2.87;;;29.10;49.00;;;;;;5007046;28;20454;-83
2022/09/12 14:24:53;;;;;;;2.93;2.73;;;29.30;48.90;;;;;;5035084;28;20430;-84
2022/09/12 14:27:44;;;;;;;3.03;2.73;;;29.40;48.80;;;;;;5015050;28;21260;-82
2022/09/12 14:30:40;;;;;;;3.37;3.10;;;29.10;48.70;;;;;;5002415;28;20486;-83
2022/09/12 14:36:37;;;;;;;3.63;3.33;;;28.90;49.40;;;;;;5005277;28;20465;-83
2022/09/12 14:39:19;;;;;;;3.30;3.00;;;28.60;50.00;;;;;;5003726;28;20470;-84
2022/09/12 14:42:04;;;;;;;3.30;3.00;;;28.80;49.80;;;;;;5008761;28;20510;-84
2022/09/12 14:44:49;;;;;;;3.43;3.23;;;28.80;49.70;;;;;;4994966;28;20820;-83
2022/09/12 14:47:35;;;;;;;3.07;2.87;;;28.70;50.20;;;;;;5017889;28;20461;-83
2022/09/12 14:50:22;;;;;;;6.20;3.90;;;28.80;50.40;;;;;;5018068;28;20954;-84
2022/09/12 14:53:28;;;;;;;3.40;3.20;;;28.70;50.40;;;;;;5018503;28;20438;-83
2022/09/12 14:56:17;;;;;;;2.97;2.77;;;28.40;50.70;;;;;;5014597;28;20472;-85
2022/09/12 14:58:50;;;;;;;3.13;2.90;;;28.50;50.40;;;;;;5007928;28;20457;-83
2022/09/12 15:01:26;;;;;;;3.13;2.93;;;28.50;51.00;;;;;;5018305;28;20948;-83
2022/09/12 15:03:59;;;;;;;3.43;3.23;;;28.20;51.40;;;;;;4989679;28;20514;-84
2022/09/12 15:06:36;;;;;;;3.07;2.87;;;28.10;51.50;;;;;;4987248;28;20435;-83
2022/09/12 15:09:28;;;;;;;3.67;3.30;;;28.10;51.50;;;;;;5003512;28;20537;-83
2022/09/12 15:12:18;;;;;;;4.07;3.77;;;28.00;51.90;;;;;;5020008;28;20450;-84
2022/09/12 15:15:04;;;;;;;3.37;3.17;;;28.20;52.00;;;;;;5021119;28;20915;-84
2022/09/12 15:17:32;;;;;;;3.27;3.07;;;28.00;51.70;;;;;;5002570;28;20441;-84
2022/09/12 15:20:19;;;;;;;3.10;2.90;;;28.30;51.60;;;;;;5018999;28;20485;-83
2022/09/12 15:22:58;;;;;;;4.40;3.13;;;28.50;50.70;;;;;;5021745;28;20454;-84
2022/09/12 15:25:49;;;;;;;3.87;3.07;;;28.20;50.80;;;;;;5023348;28;20462;-84
2022/09/12 15:28:26;;;;;;;3.30;3.10;;;28.00;51.40;;;;;;4991246;28;20458;-84
2022/09/12 15:31:22;;;;;;;3.90;3.60;;;27.80;51.60;;;;;;5021025;28;20504;-84
2022/09/12 15:34:03;;;;;;;3.07;2.87;;;27.90;51.60;;;;;;5010319;28;20435;-84
2022/09/12 15:36:32;;;;;;;4.73;2.97;;;27.90;51.70;;;;;;5008054;28;20462;-83
2022/09/12 15:39:08;;;;;;;3.57;3.27;;;27.70;51.90;;;;;;5011295;28;20481;-84
2022/09/12 15:41:41;;;;;;;3.50;3.20;;;27.80;51.60;;;;;;5021194;28;20446;-83
2022/09/12 15:44:12;;;;;;;2.77;2.57;;;27.70;52.20;;;;;;5021440;28;20442;-85
2022/09/12 15:46:50;;;;;;;3.50;3.30;;;27.70;52.00;;;;;;5002612;28;20676;-84
2022/09/12 15:49:28;;;;;;;4.50;3.00;;;27.80;51.90;;;;;;4987552;28;20470;-84
2022/09/12 15:51:58;;;;;;;2.90;2.70;;;27.70;52.10;;;;;;5012277;28;20484;-85
2022/09/12 15:54:39;;;;;;;3.20;2.90;;;27.70;51.90;;;;;;5008188;28;20447;-83
2022/09/12 15:57:19;;;;;;;3.70;3.37;;;27.40;52.20;;;;;;4997777;28;20484;-83
2022/09/12 15:59:51;;;;;;;3.23;2.63;;;27.60;52.20;;;;;;4999354;28;20509;-81
2022/09/12 16:02:37;;;;;;;2.80;2.60;;;27.60;52.20;;;;;;5007081;28;20474;-84
2022/09/12 16:05:24;;;;;;;2.67;2.57;;;27.50;52.10;;;;;;5007068;28;20472;-84
2022/09/12 16:08:30;;;;;;;4.23;2.53;;;27.40;52.10;;;;;;4990514;28;20487;-84
2022/09/12 16:11:17;;;;;;;2.90;2.70;;;27.40;52.20;;;;;;5091517;22;20927;-85
2022/09/12 16:14:06;;;;;;;2.40;2.30;;;27.50;52.40;;;;;;5061103;28;20516;-83
2022/09/12 16:17:00;;;;;;;2.60;2.40;;;27.60;52.50;;;;;;5061059;28;20445;-83
2022/09/12 16:19:41;;;;;;;2.90;2.70;;;27.40;52.20;;;;;;5062018;28;20474;-84